Time;durP1;ratioP1;P1;durP2;ratioP2;P2;SDS_P1;SDS_P2;PMS_P1;PMS_P2;Temp;Humidity;BMP_temperature;BMP_pressure;BME280_temperature;BME280_humidity;BME280_pressure;Samples;Min_cycle;Max_cycle;Signal;HPM_P1;HPM_P2
2023/12/25 00:02:02;;;;;;;3.53;3.22;;;;;;;12.90;97.81;100481.31;5054392;28;20064;-72
2023/12/25 00:04:28;;;;;;;4.72;3.40;;;;;;;12.90;98.00;100479.53;5049745;28;20033;-73
2023/12/25 00:06:53;;;;;;;3.45;3.15;;;;;;;12.92;97.67;100480.31;5055025;28;20031;-72
2023/12/25 00:09:19;;;;;;;4.13;3.80;;;;;;;12.88;97.69;100480.56;5053900;28;20536;-72
2023/12/25 00:11:44;;;;;;;3.80;3.40;;;;;;;12.92;97.90;100487.41;5054435;28;20029;-73
2023/12/25 00:14:10;;;;;;;3.88;3.58;;;;;;;12.91;97.46;100483.88;5045764;28;20066;-72
2023/12/25 00:16:35;;;;;;;5.68;3.90;;;;;;;12.93;97.37;100483.81;5056377;28;20114;-72
2023/12/25 00:19:01;;;;;;;4.00;3.58;;;;;;;12.93;97.79;100483.81;5055577;28;20020;-72
2023/12/25 00:21:27;;;;;;;4.22;3.83;;;;;;;12.91;97.84;100469.75;5053851;28;20040;-72
2023/12/25 00:23:53;;;;;;;3.63;3.33;;;;;;;12.92;97.94;100471.50;5049395;28;20436;-72
2023/12/25 00:26:18;;;;;;;4.05;3.63;;;;;;;12.92;97.55;100460.88;5057364;28;20479;-72
2023/12/25 00:28:44;;;;;;;4.28;3.47;;;;;;;12.93;97.69;100465.25;5053782;28;20155;-72
2023/12/25 00:31:09;;;;;;;5.25;3.75;;;;;;;12.92;97.82;100466.19;5056605;28;20021;-71
2023/12/25 00:33:35;;;;;;;4.72;2.97;;;;;;;12.90;97.53;100465.41;5057137;28;20154;-72
2023/12/25 00:36:00;;;;;;;3.53;2.95;;;;;;;12.92;96.95;100458.22;5052285;28;20128;-72
2023/12/25 00:38:26;;;;;;;3.45;3.15;;;;;;;12.92;96.62;100455.56;5059128;28;20033;-73
2023/12/25 00:40:51;;;;;;;3.22;2.92;;;;;;;12.95;96.82;100466.00;5050738;28;20028;-73
2023/12/25 00:43:16;;;;;;;3.97;3.30;;;;;;;12.92;96.80;100463.53;5061530;28;20107;-72
2023/12/25 00:45:42;;;;;;;4.85;3.20;;;;;;;12.89;96.74;100467.19;5056425;28;20427;-71
2023/12/25 00:48:07;;;;;;;5.75;3.08;;;;;;;12.91;96.19;100464.44;5051303;28;20048;-72
2023/12/25 00:50:32;;;;;;;3.88;2.90;;;;;;;12.95;96.33;100468.66;5050338;28;20040;-72
2023/12/25 00:52:58;;;;;;;4.93;3.35;;;;;;;12.95;96.13;100474.81;5056725;28;20075;-72
2023/12/25 00:55:23;;;;;;;3.67;3.15;;;;;;;12.97;95.89;100485.34;5052756;28;20025;-72
2023/12/25 00:57:48;;;;;;;5.53;3.58;;;;;;;12.90;96.50;100495.44;5053262;28;20075;-74
2023/12/25 01:00:14;;;;;;;4.93;3.70;;;;;;;12.95;96.20;100489.88;5051536;28;20025;-74
2023/12/25 01:02:39;;;;;;;4.68;3.80;;;;;;;12.94;96.37;100488.16;5057920;28;20033;-74
2023/12/25 01:05:05;;;;;;;3.42;3.13;;;;;;;12.95;96.30;100490.72;5055363;28;20087;-75
2023/12/25 01:07:30;;;;;;;5.50;3.92;;;;;;;12.91;96.06;100497.16;5057674;28;20027;-72
2023/12/25 01:09:55;;;;;;;3.97;3.35;;;;;;;12.94;96.06;100501.44;5057720;28;20150;-72
2023/12/25 01:12:21;;;;;;;3.97;3.25;;;;;;;12.96;95.91;100495.13;5057598;28;20182;-72
2023/12/25 01:14:46;;;;;;;4.80;3.42;;;;;;;12.97;96.07;100499.47;5055106;28;20062;-72
2023/12/25 01:17:12;;;;;;;4.18;3.83;;;;;;;12.95;96.04;100488.06;5060477;28;20039;-72
2023/12/25 01:19:37;;;;;;;3.80;3.20;;;;;;;12.93;96.38;100486.47;5062758;28;20033;-72
2023/12/25 01:22:03;;;;;;;4.93;3.42;;;;;;;12.95;96.24;100492.53;5062501;28;20024;-72
2023/12/25 01:24:28;;;;;;;6.00;3.78;;;;;;;12.95;95.83;100497.84;5059328;28;20032;-72
2023/12/25 01:26:54;;;;;;;3.55;3.25;;;;;;;12.95;95.98;100487.22;5063223;28;20028;-72
2023/12/25 01:29:19;;;;;;;3.67;3.22;;;;;;;13.07;95.24;100506.94;5064658;28;20117;-72
2023/12/25 01:31:45;;;;;;;5.15;3.85;;;;;;;13.07;94.79;100494.50;5061883;28;20177;-72
2023/12/25 01:34:10;;;;;;;6.38;4.03;;;;;;;12.99;95.45;100510.00;5062780;28;20024;-72
2023/12/25 01:36:35;;;;;;;4.10;3.08;;;;;;;13.02;95.51;100508.03;5062358;28;20043;-71
2023/12/25 01:39:01;;;;;;;4.90;4.40;;;;;;;13.00;95.38;100507.25;5058140;28;20031;-72
2023/12/25 01:41:27;;;;;;;5.22;4.13;;;;;;;13.16;94.78;100522.34;5062361;28;20392;-72
2023/12/25 01:43:52;;;;;;;4.57;4.18;;;;;;;13.17;94.38;100516.94;5057448;28;20025;-72
2023/12/25 01:46:18;;;;;;;3.92;3.63;;;;;;;13.22;93.95;100525.53;5059982;28;20037;-72
2023/12/25 01:48:47;;;;;;;5.47;4.50;;;;;;;13.08;94.66;100508.63;5060152;28;20017;-72
2023/12/25 01:51:12;;;;;;;5.30;4.45;;;;;;;13.06;94.84;100502.56;5062426;28;20464;-72
2023/12/25 01:53:38;;;;;;;5.20;4.57;;;;;;;13.05;94.58;100512.31;5057683;28;20093;-72
2023/12/25 01:56:03;;;;;;;5.35;4.72;;;;;;;13.05;94.75;100509.66;5059303;28;20078;-72
2023/12/25 01:58:29;;;;;;;5.85;5.03;;;;;;;13.06;95.36;100513.19;5060674;28;20076;-72
2023/12/25 02:00:54;;;;;;;7.95;5.35;;;;;;;13.01;95.47;100522.25;5062083;28;20078;-72
2023/12/25 02:03:20;;;;;;;6.85;5.32;;;;;;;13.05;95.19;100522.06;5061363;28;20059;-72
2023/12/25 02:05:47;;;;;;;5.82;5.22;;;;;;;13.01;95.35;100508.97;5064570;28;20016;-72
2023/12/25 02:08:14;;;;;;;7.53;5.53;;;;;;;13.01;95.45;100508.97;5057786;28;20027;-74
2023/12/25 02:10:40;;;;;;;7.28;6.32;;;;;;;12.98;95.16;100506.50;5058751;28;20048;-74
2023/12/25 02:13:05;;;;;;;5.75;4.88;;;;;;;13.04;95.19;100515.91;5060087;28;20467;-74
2023/12/25 02:15:32;;;;;;;6.07;5.47;;;;;;;13.02;95.34;100523.09;5056194;28;20442;-74
2023/12/25 02:17:58;;;;;;;7.22;5.75;;;;;;;13.01;95.18;100524.91;5065306;28;20476;-72
2023/12/25 02:20:23;;;;;;;7.80;5.40;;;;;;;13.03;94.44;100520.34;5062721;28;20029;-72
2023/12/25 02:22:49;;;;;;;7.60;6.57;;;;;;;13.02;94.25;100534.56;5058034;28;20123;-72
2023/12/25 02:25:36;;;;;;;7.70;6.03;;;;;;;13.10;94.21;100528.81;5056978;28;20033;-72
2023/12/25 02:28:02;;;;;;;8.25;6.25;;;;;;;13.07;93.64;100517.53;5058259;28;20442;-71
2023/12/25 02:30:28;;;;;;;7.80;5.70;;;;;;;13.14;94.09;100518.91;5059812;28;20037;-72
2023/12/25 02:32:54;;;;;;;7.45;6.20;;;;;;;13.14;93.57;100530.38;5058102;28;20025;-72
2023/12/25 02:35:19;;;;;;;6.85;6.15;;;;;;;13.15;92.97;100537.41;5069612;28;20048;-73
2023/12/25 02:37:44;;;;;;;6.80;6.20;;;;;;;13.21;92.98;100537.06;5062354;28;20044;-72
2023/12/25 02:40:10;;;;;;;7.70;6.57;;;;;;;13.21;92.91;100538.88;5062204;28;20032;-72
2023/12/25 02:42:36;;;;;;;6.63;6.03;;;;;;;13.24;92.51;100536.06;5054596;28;20017;-72
2023/12/25 02:45:02;;;;;;;5.53;5.00;;;;;;;13.28;92.47;100550.88;5060178;28;20036;-72
2023/12/25 02:47:27;;;;;;;6.15;5.57;;;;;;;13.22;92.50;100546.75;5058166;28;20126;-72
2023/12/25 02:49:52;;;;;;;6.72;6.03;;;;;;;13.24;92.38;100549.31;5066220;28;20039;-72
2023/12/25 02:52:18;;;;;;;6.45;5.00;;;;;;;13.22;92.23;100549.41;5064520;28;20025;-72
2023/12/25 02:54:44;;;;;;;7.75;5.78;;;;;;;13.20;92.67;100551.28;5067468;28;20468;-73
2023/12/25 02:57:09;;;;;;;6.05;5.45;;;;;;;13.29;91.91;100555.25;5065524;28;20051;-72
2023/12/25 02:59:34;;;;;;;6.00;5.05;;;;;;;13.27;92.06;100559.78;5066080;28;20020;-72
2023/12/25 03:02:00;;;;;;;6.18;5.50;;;;;;;13.33;91.77;100570.06;5063717;28;20075;-71
2023/12/25 03:04:25;;;;;;;6.63;5.75;;;;;;;13.28;91.40;100567.66;5069842;28;20506;-71
2023/12/25 03:06:50;;;;;;;5.80;5.10;;;;;;;13.35;91.25;100564.69;5057865;28;20372;-72
2023/12/25 03:09:16;;;;;;;6.05;5.45;;;;;;;13.31;90.89;100555.16;5065230;28;20111;-72
2023/12/25 03:11:42;;;;;;;6.57;5.30;;;;;;;13.37;90.49;100547.69;5061461;28;20047;-72
2023/12/25 03:14:07;;;;;;;6.38;5.25;;;;;;;13.37;90.63;100557.47;5060353;28;20447;-71
2023/12/25 03:16:32;;;;;;;7.60;5.22;;;;;;;13.40;90.77;100549.34;5058486;28;20546;-71
2023/12/25 03:18:58;;;;;;;5.85;5.22;;;;;;;13.39;90.65;100547.63;5062718;28;20039;-74
2023/12/25 03:21:23;;;;;;;6.07;5.22;;;;;;;13.34;90.50;100550.53;5057330;28;20119;-73
2023/12/25 03:23:48;;;;;;;6.15;5.55;;;;;;;13.39;90.41;100537.88;5063165;28;20020;-73
2023/12/25 03:26:14;;;;;;;5.78;5.05;;;;;;;13.38;90.90;100544.13;5058072;28;20088;-74
2023/12/25 03:28:39;;;;;;;5.78;5.22;;;;;;;13.32;91.17;100564.84;5060033;28;20032;-74
2023/12/25 03:31:04;;;;;;;6.78;5.65;;;;;;;13.35;90.92;100562.88;5059313;28;20031;-74
2023/12/25 03:33:30;;;;;;;6.13;5.25;;;;;;;13.38;90.83;100573.34;5059279;28;20446;-73
2023/12/25 03:35:55;;;;;;;5.80;5.25;;;;;;;13.33;91.11;100567.41;5056029;28;20460;-74
2023/12/25 03:38:21;;;;;;;6.20;5.60;;;;;;;13.37;91.04;100565.44;5060724;28;20025;-73
2023/12/25 03:40:46;;;;;;;5.97;5.38;;;;;;;13.35;91.17;100575.28;5056366;28;20074;-74
2023/12/25 03:43:11;;;;;;;5.45;4.93;;;;;;;13.35;91.08;100562.88;5061043;28;20063;-73
2023/12/25 03:45:37;;;;;;;6.03;4.90;;;;;;;13.35;90.63;100572.66;5057704;28;20916;-73
2023/12/25 03:48:03;;;;;;;6.30;4.95;;;;;;;13.31;91.06;100571.94;5050957;28;20036;-73
2023/12/25 03:50:28;;;;;;;5.32;4.82;;;;;;;13.33;91.03;100580.66;5058447;28;20033;-73
2023/12/25 03:52:54;;;;;;;5.85;4.85;;;;;;;13.33;91.41;100567.41;5062209;28;20031;-74
2023/12/25 03:55:25;;;;;;;5.97;4.93;;;;;;;13.35;91.78;100575.28;5060505;28;20437;-74
2023/12/25 03:57:51;;;;;;;7.40;4.40;;;;;;;13.34;91.63;100576.25;5055334;28;20492;-73
2023/12/25 04:00:16;;;;;;;4.80;4.13;;;;;;;13.23;92.45;100584.78;5058703;28;20032;-73
2023/12/25 04:02:42;;;;;;;7.03;4.90;;;;;;;13.21;92.64;100584.00;5055279;28;20048;-73
2023/12/25 04:05:09;;;;;;;5.10;4.43;;;;;;;13.26;92.54;100585.47;5066988;28;20432;-73
2023/12/25 04:07:35;;;;;;;6.15;4.63;;;;;;;13.19;92.86;100573.44;5062673;28;20119;-73
2023/12/25 04:10:02;;;;;;;5.10;4.35;;;;;;;13.21;92.39;100576.88;5058419;28;20149;-73
2023/12/25 04:12:27;;;;;;;5.07;4.30;;;;;;;13.26;92.69;100585.47;5059445;28;20028;-73
2023/12/25 04:14:53;;;;;;;6.28;4.35;;;;;;;13.21;92.95;100570.72;5059784;28;20024;-74
2023/12/25 04:17:18;;;;;;;4.15;3.75;;;;;;;13.13;93.47;100567.63;5053260;28;20029;-73
2023/12/25 04:19:44;;;;;;;3.97;3.58;;;;;;;13.12;93.00;100550.00;5059549;28;20021;-73
2023/12/25 04:22:09;;;;;;;4.50;4.10;;;;;;;13.18;92.83;100542.53;5054899;28;20025;-74
2023/12/25 04:24:35;;;;;;;4.82;3.58;;;;;;;13.15;92.78;100552.47;5056139;28;20033;-74
2023/12/25 04:27:00;;;;;;;4.45;3.50;;;;;;;13.19;93.38;100548.69;5056964;28;20039;-74
2023/12/25 04:29:25;;;;;;;3.90;3.42;;;;;;;13.15;92.86;100552.47;5056229;28;20032;-74
2023/12/25 04:31:51;;;;;;;4.07;3.20;;;;;;;13.12;93.09;100550.84;5055932;28;20025;-74
2023/12/25 04:34:18;;;;;;;3.20;2.90;;;;;;;13.13;93.02;100552.56;5058358;28;20036;-74
2023/12/25 04:36:44;;;;;;;3.90;3.50;;;;;;;13.11;92.98;100541.19;5059775;28;20082;-72
2023/12/25 04:39:09;;;;;;;5.60;3.67;;;;;;;13.13;92.57;100546.38;5057891;28;20488;-72
2023/12/25 04:41:34;;;;;;;3.72;3.38;;;;;;;13.22;92.36;100546.75;5058435;28;20631;-72
2023/12/25 04:44:00;;;;;;;3.90;2.80;;;;;;;13.21;92.13;100550.34;5059548;28;20048;-72
2023/12/25 04:46:29;;;;;;;2.85;2.65;;;;;;;13.19;92.05;100546.91;5061629;28;20373;-73
2023/12/25 04:48:54;;;;;;;2.80;2.60;;;;;;;13.23;92.37;100551.13;5062155;28;20847;-72
2023/12/25 04:51:20;;;;;;;2.70;2.50;;;;;;;13.21;92.20;100544.16;5071426;28;20157;-72
2023/12/25 04:53:45;;;;;;;2.72;2.35;;;;;;;13.25;92.08;100543.94;5064837;28;20499;-72
2023/12/25 04:56:11;;;;;;;2.15;2.03;;;;;;;13.25;91.39;100535.97;5066989;28;20380;-73
2023/12/25 04:58:37;;;;;;;2.10;2.00;;;;;;;13.30;90.95;100529.56;5066512;28;20052;-72
2023/12/25 05:01:04;;;;;;;2.35;2.15;;;;;;;13.33;90.99;100532.03;5062212;28;20028;-73
2023/12/25 05:03:29;;;;;;;2.42;2.22;;;;;;;13.33;90.99;100532.03;5059309;28;20365;-72
2023/12/25 05:05:55;;;;;;;2.10;1.90;;;;;;;13.30;91.10;100538.38;5059741;28;20025;-72
2023/12/25 05:08:20;;;;;;;2.20;2.05;;;;;;;13.20;91.77;100529.19;5062367;28;20105;-72
2023/12/25 05:10:49;;;;;;;2.60;2.40;;;;;;;13.08;92.49;100519.25;5058137;28;20021;-72
2023/12/25 05:13:14;;;;;;;2.10;1.77;;;;;;;13.13;91.80;100531.31;5058093;28;20463;-72
2023/12/25 05:15:40;;;;;;;2.33;2.10;;;;;;;13.14;92.05;100534.81;5061949;28;20032;-72
2023/12/25 05:18:05;;;;;;;2.92;2.65;;;;;;;13.23;91.87;100537.84;5061242;28;20562;-72
2023/12/25 05:20:34;;;;;;;2.95;2.65;;;;;;;13.21;91.55;100537.06;5059026;28;20032;-72
2023/12/25 05:22:59;;;;;;;2.75;2.47;;;;;;;13.24;91.41;100526.31;5060314;28;20032;-72
2023/12/25 05:25:25;;;;;;;4.03;2.72;;;;;;;13.05;92.48;100544.16;5060446;28;20039;-73
2023/12/25 05:27:50;;;;;;;3.38;3.00;;;;;;;13.05;92.58;100538.84;5059477;28;20437;-72
2023/12/25 05:30:16;;;;;;;3.30;3.00;;;;;;;12.93;93.34;100528.91;5062540;28;20029;-72
2023/12/25 05:32:51;;;;;;;3.70;2.65;;;;;;;13.06;93.17;100514.03;5062107;28;20032;-72
2023/12/25 05:35:16;;;;;;;4.43;2.58;;;;;;;13.07;93.43;100517.53;5064585;28;20036;-73
2023/12/25 05:37:42;;;;;;;3.42;2.63;;;;;;;12.97;94.59;100536.63;5065359;28;20127;-72
2023/12/25 05:40:08;;;;;;;4.10;2.88;;;;;;;13.08;94.08;100528.06;5066659;28;20103;-72
2023/12/25 05:42:33;;;;;;;3.95;3.00;;;;;;;13.02;94.51;100533.72;5065351;28;20480;-72
2023/12/25 05:44:58;;;;;;;4.05;2.42;;;;;;;13.00;93.93;100538.25;5063606;28;20029;-72
2023/12/25 05:47:24;;;;;;;4.03;2.83;;;;;;;13.04;93.41;100547.75;5070096;28;20089;-75
2023/12/25 05:49:49;;;;;;;4.50;3.53;;;;;;;13.02;93.65;100531.91;5063105;28;20066;-73
2023/12/25 05:52:15;;;;;;;4.25;3.28;;;;;;;12.99;94.06;100531.22;5060520;28;20112;-74
2023/12/25 05:54:42;;;;;;;4.32;3.25;;;;;;;13.07;93.75;100522.84;5061133;28;20017;-73
2023/12/25 05:57:07;;;;;;;4.18;2.88;;;;;;;13.05;93.20;100525.56;5062792;28;20031;-73
2023/12/25 05:59:33;;;;;;;4.38;3.28;;;;;;;13.00;93.66;100528.47;5065020;28;20383;-73
2023/12/25 06:01:58;;;;;;;4.30;3.20;;;;;;;12.95;95.68;100530.53;5061986;28;20039;-72
2023/12/25 06:04:23;;;;;;;4.18;2.60;;;;;;;12.90;96.26;100545.00;5058422;28;20028;-72
2023/12/25 06:06:50;;;;;;;3.45;2.88;;;;;;;12.88;96.09;100538.94;5060847;28;20021;-72
2023/12/25 06:09:15;;;;;;;3.83;3.00;;;;;;;12.85;96.87;100537.28;5059733;28;20049;-72
2023/12/25 06:11:41;;;;;;;3.28;2.75;;;;;;;12.83;96.31;100538.34;5062345;28;20063;-71
2023/12/25 06:14:06;;;;;;;4.60;3.28;;;;;;;12.85;96.05;100533.78;5063699;28;20451;-72
2023/12/25 06:16:32;;;;;;;4.10;2.90;;;;;;;12.84;96.07;100532.94;5063663;28;20082;-71
2023/12/25 06:18:58;;;;;;;4.07;2.95;;;;;;;12.86;96.02;100539.00;5060467;28;20519;-72
2023/12/25 06:21:23;;;;;;;3.10;2.75;;;;;;;12.87;95.68;100540.72;5062750;28;20052;-71
2023/12/25 06:23:48;;;;;;;3.80;2.67;;;;;;;12.91;95.49;100536.09;5058980;28;20028;-72
2023/12/25 06:26:14;;;;;;;4.20;2.78;;;;;;;12.92;95.00;100548.44;5063959;28;20029;-72
2023/12/25 06:28:39;;;;;;;3.30;2.80;;;;;;;12.92;94.94;100525.41;5065574;28;20020;-72
2023/12/25 06:31:04;;;;;;;3.28;2.90;;;;;;;12.96;95.19;100529.63;5064323;28;20021;-72
2023/12/25 06:33:30;;;;;;;2.75;2.55;;;;;;;12.95;94.91;100533.19;5059290;28;20692;-72
2023/12/25 06:35:55;;;;;;;3.35;3.00;;;;;;;12.96;94.58;100524.31;5067179;28;20024;-72
2023/12/25 06:38:21;;;;;;;3.10;2.35;;;;;;;13.00;94.77;100536.44;5063659;28;20032;-72
2023/12/25 06:40:47;;;;;;;2.58;2.30;;;;;;;13.01;94.97;100537.31;5063528;28;20028;-72
2023/12/25 06:43:12;;;;;;;3.10;2.40;;;;;;;12.98;94.95;100541.00;5058962;28;20545;-72
2023/12/25 06:45:37;;;;;;;3.03;2.53;;;;;;;12.99;95.02;100539.19;5066229;28;20033;-71
2023/12/25 06:48:06;;;;;;;2.78;2.58;;;;;;;12.92;96.14;100533.38;5056260;28;20029;-74
2023/12/25 06:50:31;;;;;;;2.67;2.40;;;;;;;12.97;95.86;100538.44;5059264;28;20032;-74
2023/12/25 06:52:57;;;;;;;3.38;3.08;;;;;;;12.91;96.42;100531.63;5060553;28;20017;-74
2023/12/25 06:55:22;;;;;;;2.45;2.25;;;;;;;12.92;96.20;100548.44;5059470;28;20028;-76
2023/12/25 06:57:48;;;;;;;4.05;3.20;;;;;;;12.87;96.99;100547.81;5057512;28;20044;-74
2023/12/25 07:00:13;;;;;;;3.40;3.10;;;;;;;12.88;97.03;100547.75;5055748;28;20093;-73
2023/12/25 07:02:40;;;;;;;5.07;3.20;;;;;;;12.86;97.05;100546.09;5054997;28;20025;-74
2023/12/25 07:05:05;;;;;;;5.35;2.95;;;;;;;12.88;97.25;100549.53;5063164;28;20476;-74
2023/12/25 07:07:31;;;;;;;4.88;3.60;;;;;;;12.89;96.52;100552.09;5056015;28;20032;-74
2023/12/25 07:09:56;;;;;;;3.28;2.97;;;;;;;12.93;96.90;100553.66;5058219;28;20039;-74
2023/12/25 07:12:23;;;;;;;3.60;3.20;;;;;;;12.90;97.24;100556.47;5060760;28;20043;-74
2023/12/25 07:14:50;;;;;;;4.63;3.78;;;;;;;12.94;96.71;100560.66;5063161;28;20024;-75
2023/12/25 07:17:16;;;;;;;4.63;4.18;;;;;;;12.93;96.62;100574.88;5055345;28;20033;-74
2023/12/25 07:19:41;;;;;;;4.47;4.07;;;;;;;12.96;96.57;100581.81;5058589;28;20039;-74
2023/12/25 07:22:06;;;;;;;4.88;4.38;;;;;;;12.97;96.10;100580.88;5060564;28;20029;-74
2023/12/25 07:24:32;;;;;;;4.93;4.45;;;;;;;12.99;96.04;100574.53;5057644;28;20090;-74
2023/12/25 07:26:57;;;;;;;5.45;4.90;;;;;;;13.02;96.27;100597.41;5058998;28;20031;-74
2023/12/25 07:29:23;;;;;;;5.13;4.63;;;;;;;13.04;95.89;100598.19;5065542;28;20021;-74
2023/12/25 07:31:48;;;;;;;1.85;1.17;;;;;;;12.96;94.70;100605.69;5061975;28;20090;-74
2023/12/25 07:34:14;;;;;;;0.95;0.50;;;;;;;12.85;93.81;100600.97;5056780;28;20020;-74
2023/12/25 07:36:39;;;;;;;0.40;0.40;;;;;;;12.72;93.71;100605.19;5061221;28;20028;-74
2023/12/25 07:39:05;;;;;;;1.33;0.52;;;;;;;12.59;93.63;100607.66;5059689;28;20052;-74
2023/12/25 07:41:31;;;;;;;0.50;0.50;;;;;;;12.43;93.85;100589.03;5056012;28;20025;-74
2023/12/25 07:44:00;;;;;;;0.38;0.22;;;;;;;12.43;93.57;100606.72;5056666;28;20036;-74
2023/12/25 07:46:26;;;;;;;0.98;0.60;;;;;;;12.41;94.18;100603.31;5060939;28;20471;-74
2023/12/25 07:48:51;;;;;;;0.40;0.40;;;;;;;12.40;93.50;100605.09;5058529;28;20024;-74
2023/12/25 07:51:17;;;;;;;0.32;0.30;;;;;;;12.38;94.07;100606.09;5057408;28;20047;-74
2023/12/25 07:53:42;;;;;;;0.35;0.35;;;;;;;12.42;94.30;100615.63;5059589;28;20029;-74
2023/12/25 07:56:08;;;;;;;0.30;0.30;;;;;;;12.40;94.08;100612.19;5051986;28;20383;-74
2023/12/25 07:58:35;;;;;;;0.93;0.73;;;;;;;12.39;94.01;100615.78;5059603;28;20242;-73
2023/12/25 08:01:00;;;;;;;0.80;0.80;;;;;;;12.36;94.01;100632.72;5045892;28;20110;-74
2023/12/25 08:03:26;;;;;;;0.75;0.75;;;;;;;12.39;93.93;100635.19;5058100;28;20029;-74
2023/12/25 08:05:51;;;;;;;1.70;0.80;;;;;;;12.29;93.99;100644.53;5062717;28;20024;-74
2023/12/25 08:08:17;;;;;;;0.77;0.70;;;;;;;12.24;94.76;100639.47;5058347;28;20114;-73
2023/12/25 08:10:42;;;;;;;0.40;0.40;;;;;;;12.13;95.26;100646.25;5064935;28;20044;-73
2023/12/25 08:13:08;;;;;;;0.65;0.50;;;;;;;12.07;95.68;100654.50;5061881;28;20537;-73
2023/12/25 08:15:33;;;;;;;0.30;0.30;;;;;;;12.00;95.82;100646.00;5055029;28;20033;-73
2023/12/25 08:17:59;;;;;;;0.73;0.38;;;;;;;11.95;95.97;100653.31;5060514;28;20059;-73
2023/12/25 08:20:24;;;;;;;1.10;0.70;;;;;;;11.95;96.10;100655.97;5061480;28;20538;-73
2023/12/25 08:22:50;;;;;;;0.32;0.32;;;;;;;11.92;96.15;100662.25;5054494;28;20020;-73
2023/12/25 08:25:16;;;;;;;0.28;0.28;;;;;;;11.88;96.39;100657.19;5058596;28;20052;-73
2023/12/25 08:27:41;;;;;;;0.28;0.20;;;;;;;11.87;96.15;100666.94;5058395;28;20044;-71
2023/12/25 08:30:08;;;;;;;1.67;0.40;;;;;;;11.85;96.77;100675.91;5061724;28;20016;-71
2023/12/25 08:32:33;;;;;;;0.40;0.40;;;;;;;11.78;97.02;100659.38;5057341;28;20024;-71
2023/12/25 08:34:59;;;;;;;0.35;0.30;;;;;;;11.79;97.36;100677.00;5054174;28;20036;-70
2023/12/25 08:37:24;;;;;;;0.45;0.32;;;;;;;11.75;97.23;100671.00;5062265;28;20083;-70
2023/12/25 08:39:49;;;;;;;0.38;0.30;;;;;;;11.75;97.34;100678.94;5058816;28;20021;-70
2023/12/25 08:42:15;;;;;;;0.40;0.30;;;;;;;11.72;97.29;100662.34;5054264;28;20039;-71
2023/12/25 08:44:43;;;;;;;0.40;0.40;;;;;;;11.75;97.64;100668.34;5052903;28;20044;-71
2023/12/25 08:47:09;;;;;;;1.38;0.40;;;;;;;11.76;97.22;100666.56;5059966;28;20029;-71
2023/12/25 08:49:36;;;;;;;0.30;0.30;;;;;;;11.82;97.16;100686.59;5058958;28;20120;-71
2023/12/25 08:52:01;;;;;;;0.55;0.40;;;;;;;11.79;97.53;100682.28;5059523;28;20479;-70
2023/12/25 08:54:27;;;;;;;0.40;0.40;;;;;;;11.78;97.78;100690.31;5052756;28;20051;-71
2023/12/25 08:56:52;;;;;;;1.25;1.15;;;;;;;11.77;98.03;100686.81;5058110;28;20029;-71
2023/12/25 08:59:18;;;;;;;2.00;1.27;;;;;;;11.75;97.70;100673.66;5055375;28;20178;-71
2023/12/25 09:01:43;;;;;;;0.80;0.80;;;;;;;11.76;97.58;100682.44;5059392;28;20031;-71
2023/12/25 09:04:09;;;;;;;0.80;0.80;;;;;;;11.79;98.13;100676.13;5051762;28;20082;-71
2023/12/25 09:06:34;;;;;;;1.35;0.80;;;;;;;11.80;97.70;100669.91;5061646;28;20024;-70
2023/12/25 09:08:59;;;;;;;0.60;0.60;;;;;;;11.80;97.98;100652.25;5055076;28;20028;-73
2023/12/25 09:11:25;;;;;;;0.52;0.52;;;;;;;11.81;97.57;100658.41;5057280;28;20037;-73
2023/12/25 09:13:50;;;;;;;1.13;0.57;;;;;;;11.84;98.05;100680.31;5052432;28;20132;-71
2023/12/25 09:16:16;;;;;;;0.73;0.73;;;;;;;11.89;97.77;100677.44;5055639;28;20480;-71
2023/12/25 09:18:41;;;;;;;0.90;0.90;;;;;;;11.91;98.01;100675.59;5062835;28;20025;-71
2023/12/25 09:21:06;;;;;;;1.17;1.08;;;;;;;11.94;97.73;100688.69;5057905;28;20399;-71
2023/12/25 09:23:32;;;;;;;1.42;1.33;;;;;;;11.94;97.72;100694.84;5059006;28;20017;-71
2023/12/25 09:25:57;;;;;;;0.80;0.80;;;;;;;11.94;97.44;100702.81;5057136;28;20159;-71
2023/12/25 09:28:23;;;;;;;1.42;0.60;;;;;;;11.93;97.60;100702.84;5059702;28;20423;-71
2023/12/25 09:30:48;;;;;;;1.15;0.65;;;;;;;11.97;97.49;100712.38;5061916;28;20045;-71
2023/12/25 09:33:13;;;;;;;2.40;1.63;;;;;;;11.97;97.64;100737.06;5061202;28;20480;-71
2023/12/25 09:35:39;;;;;;;1.80;1.58;;;;;;;11.96;97.61;100745.09;5054894;28;20033;-71
2023/12/25 09:38:04;;;;;;;1.27;1.17;;;;;;;11.98;97.84;100752.06;5062376;28;20020;-71
2023/12/25 09:40:30;;;;;;;1.40;1.30;;;;;;;11.96;97.83;100747.75;5063791;28;20029;-71
2023/12/25 09:43:01;;;;;;;2.53;1.80;;;;;;;11.91;97.71;100752.41;5064929;28;20028;-71
2023/12/25 09:45:32;;;;;;;1.23;1.00;;;;;;;11.88;97.82;100757.84;5066712;28;20421;-71
2023/12/25 09:47:58;;;;;;;2.07;1.50;;;;;;;11.89;97.84;100748.97;5063977;28;20399;-70
2023/12/25 09:50:23;;;;;;;0.95;0.95;;;;;;;11.89;97.60;100747.19;5057620;28;20025;-71
2023/12/25 09:52:48;;;;;;;1.25;0.93;;;;;;;11.92;98.14;100735.59;5055755;28;20107;-71
2023/12/25 09:55:14;;;;;;;0.70;0.70;;;;;;;11.93;97.75;100732.00;5056942;28;20036;-71
2023/12/25 09:57:40;;;;;;;1.80;0.73;;;;;;;11.94;97.67;100729.28;5059377;28;20048;-71
2023/12/25 10:00:08;;;;;;;0.60;0.60;;;;;;;12.06;96.99;100729.63;5059589;28;20435;-71
2023/12/25 10:02:36;;;;;;;0.40;0.40;;;;;;;11.96;97.11;100722.13;5060031;28;20396;-72
2023/12/25 10:05:02;;;;;;;0.63;0.60;;;;;;;11.93;97.06;100732.00;5060791;28;20447;-71
2023/12/25 10:07:28;;;;;;;1.30;1.20;;;;;;;11.89;97.31;100727.78;5064251;28;20028;-71
2023/12/25 10:09:54;;;;;;;3.28;0.95;;;;;;;11.90;97.39;100740.97;5062504;28;20024;-71
2023/12/25 10:12:19;;;;;;;1.60;0.80;;;;;;;11.92;97.43;100730.28;5057418;28;20017;-71
2023/12/25 10:14:45;;;;;;;0.50;0.40;;;;;;;11.89;97.32;100738.38;5057858;28;20028;-71
2023/12/25 10:17:11;;;;;;;0.95;0.40;;;;;;;11.87;96.84;100742.88;5060286;28;21235;-70
2023/12/25 10:19:52;;;;;;;0.93;0.40;;;;;;;12.02;96.45;100738.66;5062318;28;20017;-70
2023/12/25 10:22:35;;;;;;;0.73;0.30;;;;;;;12.00;96.26;100738.72;5067749;28;20563;-70
2023/12/25 10:25:10;;;;;;;2.13;0.90;;;;;;;11.98;96.52;100740.59;5056999;28;20474;-70
2023/12/25 10:27:40;;;;;;;3.13;1.15;;;;;;;11.92;96.30;100746.19;5057533;28;20071;-70
2023/12/25 10:30:27;;;;;;;1.10;0.80;;;;;;;12.00;95.55;100744.88;5056470;28;20024;-70
2023/12/25 10:33:13;;;;;;;1.25;0.60;;;;;;;12.13;94.88;100742.53;5058321;28;20384;-72
2023/12/25 10:35:39;;;;;;;0.68;0.50;;;;;;;12.08;95.17;100739.22;5061240;28;20125;-73
2023/12/25 10:38:05;;;;;;;0.68;0.60;;;;;;;12.11;94.72;100744.38;5059865;28;20171;-73
2023/12/25 10:40:32;;;;;;;1.63;0.50;;;;;;;12.10;94.33;100739.16;5062306;28;20399;-70
2023/12/25 10:42:58;;;;;;;0.93;0.60;;;;;;;12.12;94.08;100746.06;5064224;28;20074;-70
2023/12/25 10:45:25;;;;;;;0.60;0.40;;;;;;;12.06;94.16;100740.22;5060313;28;20689;-70
2023/12/25 10:47:52;;;;;;;0.40;0.40;;;;;;;11.97;94.67;100723.81;5058622;28;20437;-70
2023/12/25 10:50:23;;;;;;;0.60;0.57;;;;;;;11.96;94.70;100731.84;5061675;28;20345;-70
2023/12/25 10:52:50;;;;;;;1.73;0.50;;;;;;;12.01;94.72;100745.75;5058873;28;20024;-70
2023/12/25 10:55:35;;;;;;;2.88;0.70;;;;;;;12.05;94.48;100741.16;5060203;28;20396;-70
2023/12/25 10:58:02;;;;;;;2.58;0.57;;;;;;;11.99;94.37;100750.28;5056202;28;20045;-70
2023/12/25 11:00:29;;;;;;;0.60;0.60;;;;;;;11.97;94.43;100736.22;5057448;28;20507;-70
2023/12/25 11:02:56;;;;;;;1.02;0.60;;;;;;;12.02;94.57;100742.16;5060635;28;20024;-70
2023/12/25 11:05:23;;;;;;;0.90;0.55;;;;;;;12.03;93.96;100740.38;5059686;28;20028;-70
2023/12/25 11:07:49;;;;;;;0.70;0.70;;;;;;;12.04;94.08;100736.81;5062911;28;20025;-70
2023/12/25 11:10:15;;;;;;;2.30;0.73;;;;;;;12.06;94.07;100735.78;5051816;28;20495;-70
2023/12/25 11:12:40;;;;;;;3.85;0.88;;;;;;;12.05;93.57;100746.47;5052930;28;20121;-70
2023/12/25 11:15:06;;;;;;;2.50;0.90;;;;;;;12.05;93.54;100755.28;5055465;28;20033;-70
2023/12/25 11:17:34;;;;;;;1.10;1.00;;;;;;;12.04;93.68;100758.00;5055723;28;20035;-70
2023/12/25 11:20:04;;;;;;;2.67;1.08;;;;;;;11.99;93.08;100756.44;5052846;28;20094;-69